Burtonsville, New York
Current Conditions -  °F | °C
As of 6:55 AM on Saturday 25 Oct 2014 (Local Time) from KNY0 Reporting Station
Overcast Overcast  
Wind Chill:   Ceiling: 1000
Heat Index:   Visibility: 7mi
Dew Point:   Wind: 8mph
Humidity: 88%   Direction: 270°W
Pressure: 29.82"   Gusts: NA
Location:  42.7904°N, 74.3145°W
Report Text: KNY0 251055Z AUTO 27007KT 7SM OVC010 07/05 A2982 RMK AO2 T00700052
Loading
Personal Weather Stations






























Interactive Weather Map
Tropical Storm Tracking
New forecast layout! Learn more

10-Day Weather Forecast

Advertisements
Track Severe Weather on mobile